createdAt,value
2022-12-07T05:02:49.365Z,17.45
2022-12-07T05:05:51.825Z,18.48
2022-12-07T05:08:53.907Z,16.95
2022-12-07T05:11:56.236Z,17.40
2022-12-07T05:14:58.255Z,18.00
2022-12-07T05:18:00.805Z,18.15
2022-12-07T05:21:02.841Z,18.65
2022-12-07T05:24:06.272Z,17.05
2022-12-07T05:27:08.364Z,18.08
2022-12-07T05:30:11.072Z,17.42
2022-12-07T05:33:13.081Z,16.73
2022-12-07T05:36:15.600Z,17.92
2022-12-07T05:39:17.727Z,17.37
2022-12-07T05:42:20.081Z,17.92
2022-12-07T05:45:22.231Z,17.50
2022-12-07T05:48:25.097Z,16.40
2022-12-07T05:51:27.403Z,17.40
2022-12-07T05:54:29.792Z,17.98
2022-12-07T05:57:31.871Z,17.00
2022-12-07T06:00:34.171Z,17.98
2022-12-07T06:03:36.518Z,17.08
2022-12-07T06:06:38.672Z,17.65
2022-12-07T06:09:41.289Z,17.23
2022-12-07T06:12:44.091Z,18.23
2022-12-07T06:15:46.384Z,18.05
2022-12-07T06:18:48.433Z,17.67
2022-12-07T06:21:51.007Z,18.65
2022-12-07T06:24:53.035Z,18.40
2022-12-07T06:27:56.326Z,18.48
2022-12-07T06:30:59.982Z,17.98
2022-12-07T06:34:09.849Z,19.85
2022-12-07T06:37:11.956Z,20.35
2022-12-07T06:40:14.338Z,22.15
2022-12-07T06:43:16.376Z,21.80
2022-12-07T06:46:18.980Z,22.33
2022-12-07T06:49:21.699Z,20.77
2022-12-07T06:52:24.199Z,22.40
2022-12-07T06:55:26.683Z,22.80
2022-12-07T06:58:29.200Z,21.80
2022-12-07T07:01:31.580Z,21.37
2022-12-07T07:04:34.267Z,20.00
2022-12-07T07:07:51.705Z,20.73
2022-12-07T07:10:58.724Z,18.92
2022-12-07T07:14:03.260Z,18.45
2022-12-07T07:17:05.939Z,17.15
2022-12-07T07:20:08.365Z,16.65
2022-12-07T07:23:10.784Z,16.50
2022-12-07T07:26:12.861Z,14.30
2022-12-07T07:29:15.172Z,14.82
2022-12-07T07:32:17.264Z,13.82
2022-12-07T07:35:20.144Z,14.27
2022-12-07T07:38:22.442Z,13.60
2022-12-07T07:41:25.520Z,14.40
2022-12-07T07:44:34.525Z,14.35
2022-12-07T07:47:37.521Z,14.63
2022-12-07T07:50:39.737Z,15.50
2022-12-07T07:53:42.340Z,14.73
2022-12-07T07:56:44.590Z,15.65
2022-12-07T07:59:49.878Z,15.80
2022-12-07T08:02:52.877Z,15.00
2022-12-07T08:05:55.271Z,15.80
2022-12-07T08:09:00.464Z,15.13
2022-12-07T08:12:03.033Z,14.50
2022-12-07T08:15:06.001Z,15.27
2022-12-07T08:18:08.868Z,14.13
2022-12-07T08:21:14.434Z,15.02
2022-12-07T08:24:17.680Z,13.90
2022-12-07T08:27:19.699Z,14.18
2022-12-07T08:30:22.841Z,14.55
2022-12-07T08:33:25.348Z,14.18
2022-12-07T08:36:28.214Z,15.20
2022-12-07T08:39:31.719Z,14.07
2022-12-07T08:42:41.304Z,14.82
2022-12-07T08:45:43.512Z,14.60
2022-12-07T08:49:02.936Z,14.73
2022-12-07T08:52:06.388Z,14.65
2022-12-07T08:55:11.968Z,16.12
2022-12-07T08:58:14.186Z,15.20
2022-12-07T09:01:16.760Z,14.82
2022-12-07T09:04:18.986Z,15.32
2022-12-07T09:07:21.361Z,14.32
2022-12-07T09:10:24.498Z,15.05
2022-12-07T09:13:26.861Z,14.65
2022-12-07T09:16:29.318Z,14.90
2022-12-07T09:19:31.766Z,15.13
2022-12-07T09:22:34.245Z,14.57
2022-12-07T09:25:36.604Z,14.77
2022-12-07T09:28:39.664Z,15.60
2022-12-07T09:31:42.102Z,14.85
2022-12-07T09:34:44.254Z,13.88
2022-12-07T09:37:46.706Z,12.57
2022-12-07T09:40:49.241Z,14.77
2022-12-07T09:43:53.307Z,12.13
2022-12-07T09:47:01.853Z,12.48
2022-12-07T09:50:14.456Z,11.85
2022-12-07T09:53:25.465Z,11.48
2022-12-07T09:56:31.604Z,9.95
2022-12-07T09:59:36.624Z,10.18
2022-12-07T10:02:46.891Z,9.70
2022-12-07T10:05:52.255Z,10.40
2022-12-07T10:08:54.309Z,9.90
2022-12-07T10:12:14.659Z,9.52
2022-12-07T10:15:16.692Z,9.93
2022-12-07T10:18:37.038Z,9.18
2022-12-07T10:21:39.125Z,10.55
2022-12-07T10:24:43.908Z,10.80
2022-12-07T10:27:58.901Z,10.93
2022-12-07T10:31:05.980Z,11.90
2022-12-07T10:34:23.113Z,10.85
2022-12-07T10:37:28.969Z,10.45
2022-12-07T10:40:38.697Z,9.87
2022-12-07T10:43:54.554Z,7.87
2022-12-07T10:47:02.920Z,8.50
2022-12-07T10:50:17.542Z,8.27
2022-12-07T10:53:36.000Z,8.10
2022-12-07T10:57:00.077Z,7.75
2022-12-07T11:00:23.280Z,7.32
2022-12-07T11:03:32.532Z,7.80
2022-12-07T11:06:42.554Z,7.32
2022-12-07T11:10:09.758Z,7.40
2022-12-07T11:13:35.452Z,7.10
2022-12-07T11:16:43.645Z,7.68
2022-12-07T11:20:19.905Z,7.47
2022-12-07T11:23:40.975Z,8.30
2022-12-07T11:26:49.006Z,8.52
2022-12-07T11:30:03.656Z,7.82
2022-12-07T11:33:13.002Z,8.10
2022-12-07T11:36:34.725Z,8.02
2022-12-07T11:39:45.700Z,7.60
2022-12-07T11:42:56.960Z,8.20
2022-12-07T11:46:09.604Z,7.43
2022-12-07T11:49:25.335Z,7.60
2022-12-07T11:52:41.223Z,7.63
2022-12-07T11:55:43.470Z,8.20
2022-12-07T11:58:50.264Z,7.95
2022-12-07T12:02:13.574Z,8.27
2022-12-07T12:05:22.580Z,8.32
2022-12-07T12:15:52.944Z,8.02
2022-12-07T12:19:27.328Z,7.00
2022-12-07T12:22:43.626Z,7.87
2022-12-07T12:26:01.264Z,6.97
2022-12-07T12:29:09.703Z,7.28
2022-12-07T12:32:17.676Z,7.82
2022-12-07T12:35:46.791Z,7.65
2022-12-07T12:39:15.086Z,7.18
2022-12-07T12:42:20.077Z,7.32
2022-12-07T12:45:28.116Z,7.80
2022-12-07T12:48:36.625Z,7.75
2022-12-07T12:51:41.158Z,7.30
2022-12-07T12:55:09.304Z,7.93
2022-12-07T12:58:20.709Z,7.95
2022-12-07T13:01:28.688Z,8.63
2022-12-07T13:05:01.852Z,8.60
2022-12-07T13:08:22.526Z,8.30
2022-12-07T13:11:41.620Z,8.48
2022-12-07T13:14:58.396Z,8.40
2022-12-07T13:18:03.662Z,8.85
2022-12-07T13:21:08.746Z,7.78
2022-12-07T13:24:14.473Z,8.20
2022-12-07T13:27:16.991Z,7.53
2022-12-07T13:30:23.029Z,7.10
2022-12-07T13:33:29.050Z,7.50
2022-12-07T13:36:40.727Z,7.50
2022-12-07T13:39:48.503Z,8.15
2022-12-07T13:42:59.420Z,7.30
2022-12-07T13:46:01.920Z,7.47
2022-12-07T13:49:24.596Z,7.62
2022-12-07T13:52:31.521Z,7.80
2022-12-07T13:55:33.916Z,7.82
2022-12-07T13:58:35.987Z,7.62
2022-12-07T14:01:38.384Z,7.65
2022-12-07T14:04:40.741Z,7.57
2022-12-07T14:08:00.035Z,8.48
2022-12-07T14:11:02.520Z,7.70
2022-12-07T14:14:05.997Z,7.60
2022-12-07T14:17:19.901Z,8.02
2022-12-07T14:20:39.952Z,8.18
2022-12-07T14:23:43.132Z,7.80
2022-12-07T14:26:47.596Z,8.00
2022-12-07T14:29:49.882Z,8.43
2022-12-07T14:32:56.000Z,8.20
2022-12-07T14:35:59.091Z,8.10
2022-12-07T14:39:01.386Z,9.18
2022-12-07T14:42:03.898Z,8.73
2022-12-07T14:45:07.392Z,9.88
2022-12-07T14:55:02.728Z,9.55
2022-12-07T14:58:05.059Z,9.10
2022-12-07T15:01:07.365Z,10.20
2022-12-07T15:04:09.619Z,9.02
2022-12-07T15:07:20.169Z,8.35
2022-12-07T15:10:25.642Z,8.82
2022-12-07T15:13:46.227Z,8.40
2022-12-07T15:17:07.998Z,8.90
2022-12-07T15:20:14.296Z,9.80
2022-12-07T15:23:16.389Z,9.87
2022-12-07T15:26:18.854Z,11.27
2022-12-07T15:29:23.521Z,11.25
2022-12-07T15:32:26.130Z,10.90
2022-12-07T15:35:28.226Z,10.50
2022-12-07T15:39:05.298Z,12.30
2022-12-07T15:41:53.584Z,12.68
2022-12-07T15:45:05.387Z,12.75
2022-12-07T15:51:30.293Z,21.48
2022-12-07T15:54:33.847Z,15.25
2022-12-07T15:57:38.022Z,16.60
2022-12-07T16:00:40.072Z,18.42
2022-12-07T16:03:42.644Z,15.85
2022-12-07T16:06:45.591Z,16.05
2022-12-07T16:09:48.495Z,15.90
2022-12-07T16:12:50.522Z,14.93
2022-12-07T16:15:54.351Z,14.93
2022-12-07T16:18:56.459Z,15.20
2022-12-07T16:21:59.529Z,14.15
2022-12-07T16:25:01.972Z,19.35
2022-12-07T16:28:04.602Z,18.17
2022-12-07T16:31:10.774Z,19.62
2022-12-07T16:34:13.140Z,17.40
2022-12-07T16:37:15.264Z,15.27
2022-12-07T16:40:17.658Z,15.25
